N62740 KCNO-KCRQ
Flight info
| Callsign | N62740 |
|---|---|
| Flight time | 0h 42m |
| Altitude | 5500 |
| Route | FOLLOWING THE 15 INTESTATE THEN HEAD EAST FROM TEMECULA |
| Aircraft | C172/L-V/N |
Departure
| Time | 2026-04-20 01:05 |
|---|---|
| Airport | Chino Airport (KCNO) |
Arrival
| Time | 2026-04-20 01:47 |
|---|---|
| Airport | McClellan-Palomar Airport (KCRQ) |
| Time | Latitude | Longitude | Altitude | Speed | Heading |
|---|---|---|---|---|---|
| 2026-04-20 00:37 | 33.97898 | -117.63472 | 638 ft | 0 kts | 308° |
| 2026-04-20 00:56 | 33.97898 | -117.63473 | 638 ft | 1 kts | 304° |
| 2026-04-20 00:57 | 33.97878 | -117.63528 | 637 ft | 13 kts | 224° |
| 2026-04-20 00:57 | 33.97804 | -117.63615 | 634 ft | 14 kts | 226° |
| 2026-04-20 00:57 | 33.97741 | -117.63660 | 634 ft | 11 kts | 144° |
| 2026-04-20 00:57 | 33.97780 | -117.63576 | 635 ft | 13 kts | 58° |
| 2026-04-20 00:58 | 33.97728 | -117.63570 | 635 ft | 14 kts | 199° |
| 2026-04-20 00:58 | 33.97690 | -117.63479 | 636 ft | 19 kts | 88° |
| 2026-04-20 00:58 | 33.97693 | -117.63273 | 640 ft | 29 kts | 89° |
| 2026-04-20 00:58 | 33.97686 | -117.63098 | 644 ft | 7 kts | 123° |
| 2026-04-20 00:59 | 33.97668 | -117.63085 | 644 ft | 0 kts | 168° |
| 2026-04-20 01:04 | 33.97597 | -117.63126 | 645 ft | 27 kts | 236° |
| 2026-04-20 01:04 | 33.97581 | -117.63481 | 638 ft | 63 kts | 269° |
| 2026-04-20 01:04 | 33.97582 | -117.64090 | 755 ft | 79 kts | 265° |
| 2026-04-20 01:04 | 33.97568 | -117.64753 | 1020 ft | 76 kts | 263° |
| 2026-04-20 01:05 | 33.97556 | -117.65391 | 1314 ft | 80 kts | 258° |
| 2026-04-20 01:05 | 33.97196 | -117.65783 | 1615 ft | 73 kts | 205° |
| 2026-04-20 01:05 | 33.96717 | -117.65739 | 1855 ft | 66 kts | 178° |
| 2026-04-20 01:05 | 33.96241 | -117.65538 | 1911 ft | 76 kts | 175° |
| 2026-04-20 01:06 | 33.95711 | -117.65362 | 2025 ft | 82 kts | 175° |
| 2026-04-20 01:06 | 33.95118 | -117.65156 | 2116 ft | 94 kts | 167° |
| 2026-04-20 01:06 | 33.94562 | -117.64756 | 2300 ft | 97 kts | 145° |
| 2026-04-20 01:06 | 33.94081 | -117.64197 | 2518 ft | 94 kts | 136° |
| 2026-04-20 01:07 | 33.93715 | -117.63582 | 2783 ft | 86 kts | 119° |
| 2026-04-20 01:07 | 33.93516 | -117.62872 | 2936 ft | 92 kts | 114° |
| 2026-04-20 01:07 | 33.93322 | -117.62197 | 3202 ft | 75 kts | 117° |
| 2026-04-20 01:07 | 33.93074 | -117.61555 | 3254 ft | 91 kts | 128° |
| 2026-04-20 01:08 | 33.92699 | -117.60980 | 3478 ft | 82 kts | 136° |
| 2026-04-20 01:08 | 33.92374 | -117.60492 | 3773 ft | 70 kts | 136° |
| 2026-04-20 01:08 | 33.92031 | -117.60085 | 3958 ft | 68 kts | 146° |
| 2026-04-20 01:08 | 33.91587 | -117.59727 | 4056 ft | 81 kts | 153° |
| 2026-04-20 01:09 | 33.91085 | -117.59401 | 4256 ft | 81 kts | 154° |
| 2026-04-20 01:09 | 33.90594 | -117.59091 | 4413 ft | 80 kts | 161° |
| 2026-04-20 01:09 | 33.90284 | -117.58953 | 4623 ft | 66 kts | 167° |
| 2026-04-20 01:09 | 33.89838 | -117.58851 | 4754 ft | 69 kts | 174° |
| 2026-04-20 01:10 | 33.89354 | -117.58759 | 4881 ft | 69 kts | 171° |
| 2026-04-20 01:10 | 33.88337 | -117.58554 | 5090 ft | 80 kts | 160° |
| 2026-04-20 01:10 | 33.87865 | -117.58287 | 5262 ft | 78 kts | 158° |
| 2026-04-20 01:11 | 33.87296 | -117.58004 | 5247 ft | 93 kts | 157° |
| 2026-04-20 01:11 | 33.86696 | -117.57747 | 5300 ft | 98 kts | 162° |
| 2026-04-20 01:11 | 33.86090 | -117.57479 | 5523 ft | 83 kts | 153° |
| 2026-04-20 01:11 | 33.85608 | -117.57111 | 5667 ft | 85 kts | 143° |
| 2026-04-20 01:12 | 33.85166 | -117.56668 | 5825 ft | 81 kts | 139° |
| 2026-04-20 01:12 | 33.84717 | -117.56155 | 5776 ft | 100 kts | 140° |
| 2026-04-20 01:12 | 33.84159 | -117.55565 | 5652 ft | 113 kts | 141° |
| 2026-04-20 01:12 | 33.83535 | -117.54961 | 5486 ft | 112 kts | 142° |
| 2026-04-20 01:13 | 33.82940 | -117.54355 | 5267 ft | 115 kts | 142° |
| 2026-04-20 01:13 | 33.82377 | -117.53782 | 5312 ft | 98 kts | 141° |
| 2026-04-20 01:13 | 33.81881 | -117.53253 | 5315 ft | 93 kts | 140° |
| 2026-04-20 01:13 | 33.81401 | -117.52757 | 5248 ft | 93 kts | 142° |
| 2026-04-20 01:14 | 33.80900 | -117.52273 | 5218 ft | 87 kts | 144° |
| 2026-04-20 01:14 | 33.80495 | -117.51826 | 5271 ft | 75 kts | 140° |
| 2026-04-20 01:14 | 33.80120 | -117.51427 | 5355 ft | 66 kts | 142° |
| 2026-04-20 01:14 | 33.79791 | -117.51057 | 5406 ft | 66 kts | 140° |
| 2026-04-20 01:15 | 33.79785 | -117.51050 | 5407 ft | 66 kts | 140° |
| 2026-04-20 01:15 | 33.79630 | -117.50866 | 5393 ft | 70 kts | 139° |
| 2026-04-20 01:15 | 33.79367 | -117.50555 | 5367 ft | 77 kts | 139° |
| 2026-04-20 01:16 | 33.79200 | -117.50365 | 5328 ft | 83 kts | 140° |
| 2026-04-20 01:16 | 33.78745 | -117.49888 | 5234 ft | 93 kts | 143° |
| 2026-04-20 01:17 | 33.78267 | -117.49411 | 5286 ft | 88 kts | 142° |
| 2026-04-20 01:17 | 33.77744 | -117.48988 | 5259 ft | 91 kts | 151° |
| 2026-04-20 01:17 | 33.77214 | -117.48570 | 5269 ft | 89 kts | 142° |
| 2026-04-20 01:17 | 33.76771 | -117.48086 | 5355 ft | 83 kts | 141° |
| 2026-04-20 01:18 | 33.76336 | -117.47606 | 5354 ft | 85 kts | 135° |
| 2026-04-20 01:18 | 33.76031 | -117.46961 | 5264 ft | 99 kts | 108° |
| 2026-04-20 01:18 | 33.75845 | -117.46128 | 5208 ft | 95 kts | 122° |
| 2026-04-20 01:18 | 33.75482 | -117.45488 | 5181 ft | 94 kts | 131° |
| 2026-04-20 01:19 | 33.75135 | -117.44847 | 5191 ft | 91 kts | 124° |
| 2026-04-20 01:19 | 33.74782 | -117.44209 | 5174 ft | 89 kts | 128° |
| 2026-04-20 01:19 | 33.74394 | -117.43628 | 5156 ft | 87 kts | 137° |
| 2026-04-20 01:19 | 33.74008 | -117.43103 | 5160 ft | 87 kts | 133° |
| 2026-04-20 01:20 | 33.73621 | -117.42521 | 5139 ft | 89 kts | 130° |
| 2026-04-20 01:20 | 33.73281 | -117.41886 | 5124 ft | 92 kts | 125° |
| 2026-04-20 01:20 | 33.72957 | -117.41305 | 5241 ft | 80 kts | 130° |
| 2026-04-20 01:20 | 33.72664 | -117.40735 | 5268 ft | 79 kts | 127° |
| 2026-04-20 01:21 | 33.72377 | -117.40203 | 5330 ft | 70 kts | 128° |
| 2026-04-20 01:21 | 33.72149 | -117.39704 | 5346 ft | 67 kts | 122° |
| 2026-04-20 01:21 | 33.71876 | -117.39270 | 5321 ft | 64 kts | 150° |
| 2026-04-20 01:21 | 33.71535 | -117.38940 | 5307 ft | 65 kts | 142° |
| 2026-04-20 01:22 | 33.71176 | -117.38615 | 5306 ft | 60 kts | 140° |
| 2026-04-20 01:22 | 33.70894 | -117.38236 | 5270 ft | 65 kts | 133° |
| 2026-04-20 01:22 | 33.70593 | -117.37784 | 5280 ft | 68 kts | 128° |
| 2026-04-20 01:22 | 33.70309 | -117.37342 | 5340 ft | 64 kts | 129° |
| 2026-04-20 01:23 | 33.70102 | -117.36861 | 5362 ft | 67 kts | 127° |
| 2026-04-20 01:23 | 33.69879 | -117.36367 | 5383 ft | 69 kts | 116° |
| 2026-04-20 01:23 | 33.69781 | -117.35809 | 5425 ft | 68 kts | 112° |
| 2026-04-20 01:23 | 33.69620 | -117.35232 | 5332 ft | 81 kts | 118° |
| 2026-04-20 01:24 | 33.69381 | -117.34588 | 5319 ft | 84 kts | 124° |
| 2026-04-20 01:24 | 33.69031 | -117.34052 | 5330 ft | 85 kts | 137° |
| 2026-04-20 01:24 | 33.68573 | -117.33672 | 5435 ft | 75 kts | 160° |
| 2026-04-20 01:24 | 33.68053 | -117.33458 | 5416 ft | 79 kts | 163° |
| 2026-04-20 01:25 | 33.67529 | -117.33328 | 5387 ft | 84 kts | 185° |
| 2026-04-20 01:25 | 33.66984 | -117.33340 | 5444 ft | 77 kts | 159° |
| 2026-04-20 01:25 | 33.66485 | -117.33131 | 5490 ft | 75 kts | 164° |
| 2026-04-20 01:25 | 33.65979 | -117.32949 | 5512 ft | 76 kts | 160° |
| 2026-04-20 01:26 | 33.65484 | -117.32718 | 5561 ft | 74 kts | 161° |
| 2026-04-20 01:26 | 33.64989 | -117.32514 | 5587 ft | 77 kts | 164° |
| 2026-04-20 01:26 | 33.64427 | -117.32318 | 5502 ft | 86 kts | 162° |
| 2026-04-20 01:26 | 33.63869 | -117.32154 | 5528 ft | 84 kts | 172° |
| 2026-04-20 01:27 | 33.63281 | -117.32045 | 5537 ft | 82 kts | 164° |
| 2026-04-20 01:27 | 33.62745 | -117.31820 | 5548 ft | 83 kts | 160° |
| 2026-04-20 01:27 | 33.62198 | -117.31603 | 5529 ft | 86 kts | 166° |
| 2026-04-20 01:27 | 33.61579 | -117.31431 | 5412 ft | 95 kts | 168° |
| 2026-04-20 01:28 | 33.60929 | -117.31313 | 5387 ft | 93 kts | 175° |
| 2026-04-20 01:28 | 33.60320 | -117.31290 | 5429 ft | 88 kts | 173° |
| 2026-04-20 01:28 | 33.59691 | -117.31162 | 5447 ft | 90 kts | 169° |
| 2026-04-20 01:28 | 33.59065 | -117.31070 | 5464 ft | 87 kts | 175° |
| 2026-04-20 01:29 | 33.58476 | -117.31013 | 5518 ft | 88 kts | 174° |
| 2026-04-20 01:29 | 33.57867 | -117.30975 | 5578 ft | 81 kts | 173° |
| 2026-04-20 01:29 | 33.57305 | -117.30897 | 5596 ft | 83 kts | 171° |
| 2026-04-20 01:29 | 33.56698 | -117.30804 | 5527 ft | 90 kts | 170° |
| 2026-04-20 01:30 | 33.56058 | -117.30656 | 5460 ft | 96 kts | 170° |
| 2026-04-20 01:30 | 33.55406 | -117.30539 | 5444 ft | 93 kts | 173° |
| 2026-04-20 01:30 | 33.54803 | -117.30369 | 5461 ft | 89 kts | 165° |
| 2026-04-20 01:30 | 33.54312 | -117.30136 | 5638 ft | 71 kts | 150° |
| 2026-04-20 01:31 | 33.53900 | -117.29715 | 5611 ft | 80 kts | 145° |
| 2026-04-20 01:31 | 33.53385 | -117.29362 | 5393 ft | 102 kts | 162° |
| 2026-04-20 01:31 | 33.52791 | -117.29161 | 5582 ft | 79 kts | 170° |
| 2026-04-20 01:31 | 33.52259 | -117.29017 | 5589 ft | 79 kts | 166° |
| 2026-04-20 01:32 | 33.51693 | -117.28840 | 5537 ft | 86 kts | 169° |
| 2026-04-20 01:32 | 33.51079 | -117.28690 | 5452 ft | 91 kts | 169° |
| 2026-04-20 01:32 | 33.50486 | -117.28544 | 5482 ft | 85 kts | 166° |
| 2026-04-20 01:32 | 33.49924 | -117.28347 | 5518 ft | 85 kts | 165° |
| 2026-04-20 01:33 | 33.49336 | -117.28152 | 5502 ft | 91 kts | 166° |
| 2026-04-20 01:33 | 33.48713 | -117.27974 | 5470 ft | 93 kts | 171° |
| 2026-04-20 01:33 | 33.48091 | -117.27844 | 5467 ft | 92 kts | 173° |
| 2026-04-20 01:33 | 33.47475 | -117.27751 | 5582 ft | 80 kts | 169° |
| 2026-04-20 01:34 | 33.46930 | -117.27563 | 5567 ft | 85 kts | 165° |
| 2026-04-20 01:34 | 33.46338 | -117.27390 | 5514 ft | 89 kts | 167° |
| 2026-04-20 01:34 | 33.45743 | -117.27200 | 5460 ft | 91 kts | 171° |
| 2026-04-20 01:34 | 33.45127 | -117.27097 | 5495 ft | 86 kts | 171° |
| 2026-04-20 01:35 | 33.44555 | -117.26960 | 5500 ft | 88 kts | 169° |
| 2026-04-20 01:35 | 33.43943 | -117.26808 | 5426 ft | 83 kts | 172° |
| 2026-04-20 01:35 | 33.43390 | -117.26776 | 5386 ft | 78 kts | 179° |
| 2026-04-20 01:35 | 33.42818 | -117.26804 | 5223 ft | 84 kts | 185° |
| 2026-04-20 01:36 | 33.42249 | -117.26822 | 5100 ft | 82 kts | 172° |
| 2026-04-20 01:36 | 33.41689 | -117.26728 | 4952 ft | 76 kts | 173° |
| 2026-04-20 01:36 | 33.41128 | -117.26656 | 4675 ft | 84 kts | 174° |
| 2026-04-20 01:36 | 33.40537 | -117.26627 | 4489 ft | 82 kts | 179° |
| 2026-04-20 01:37 | 33.40015 | -117.26630 | 4391 ft | 74 kts | 182° |
| 2026-04-20 01:37 | 33.39486 | -117.26664 | 4249 ft | 79 kts | 182° |
| 2026-04-20 01:37 | 33.38916 | -117.26746 | 4056 ft | 84 kts | 186° |
| 2026-04-20 01:37 | 33.38356 | -117.26843 | 3983 ft | 79 kts | 188° |
| 2026-04-20 01:38 | 33.37814 | -117.26931 | 3887 ft | 76 kts | 185° |
| 2026-04-20 01:38 | 33.37255 | -117.26982 | 3816 ft | 93 kts | 183° |
| 2026-04-20 01:38 | 33.36568 | -117.27071 | 3946 ft | 96 kts | 188° |
| 2026-04-20 01:38 | 33.35879 | -117.27198 | 3993 ft | 106 kts | 186° |
| 2026-04-20 01:39 | 33.35087 | -117.27378 | 3829 ft | 122 kts | 194° |
| 2026-04-20 01:39 | 33.34288 | -117.27573 | 3911 ft | 113 kts | 186° |
| 2026-04-20 01:39 | 33.33486 | -117.27697 | 3897 ft | 117 kts | 187° |
| 2026-04-20 01:39 | 33.32697 | -117.27770 | 3734 ft | 110 kts | 182° |
| 2026-04-20 01:40 | 33.31930 | -117.27946 | 3598 ft | 118 kts | 193° |
| 2026-04-20 01:40 | 33.31132 | -117.28191 | 3500 ft | 119 kts | 197° |
| 2026-04-20 01:40 | 33.30343 | -117.28465 | 3448 ft | 116 kts | 192° |
| 2026-04-20 01:40 | 33.29552 | -117.28764 | 3296 ft | 124 kts | 200° |
| 2026-04-20 01:41 | 33.28742 | -117.29091 | 3164 ft | 125 kts | 197° |
| 2026-04-20 01:41 | 33.27920 | -117.29421 | 3031 ft | 125 kts | 196° |
| 2026-04-20 01:41 | 33.27096 | -117.29709 | 2922 ft | 124 kts | 197° |
| 2026-04-20 01:41 | 33.26265 | -117.30042 | 2734 ft | 129 kts | 194° |
| 2026-04-20 01:42 | 33.25397 | -117.30292 | 2608 ft | 126 kts | 193° |
| 2026-04-20 01:42 | 33.24541 | -117.30506 | 2458 ft | 126 kts | 191° |
| 2026-04-20 01:42 | 33.23637 | -117.30640 | 2178 ft | 133 kts | 185° |
| 2026-04-20 01:42 | 33.22721 | -117.30694 | 2089 ft | 127 kts | 184° |
| 2026-04-20 01:43 | 33.21842 | -117.30743 | 2015 ft | 125 kts | 182° |
| 2026-04-20 01:43 | 33.20984 | -117.30803 | 2011 ft | 119 kts | 185° |
| 2026-04-20 01:43 | 33.20211 | -117.30806 | 2120 ft | 112 kts | 177° |
| 2026-04-20 01:43 | 33.19417 | -117.30671 | 2058 ft | 119 kts | 175° |
| 2026-04-20 01:44 | 33.18574 | -117.30554 | 1977 ft | 125 kts | 177° |
| 2026-04-20 01:44 | 33.17700 | -117.30472 | 1895 ft | 129 kts | 173° |
| 2026-04-20 01:44 | 33.16860 | -117.30187 | 1922 ft | 125 kts | 159° |
| 2026-04-20 01:44 | 33.16051 | -117.29741 | 1795 ft | 132 kts | 161° |
| 2026-04-20 01:45 | 33.15227 | -117.29364 | 1641 ft | 123 kts | 163° |
| 2026-04-20 01:45 | 33.14558 | -117.28807 | 1498 ft | 116 kts | 138° |
| 2026-04-20 01:45 | 33.14188 | -117.28064 | 1357 ft | 102 kts | 110° |
| 2026-04-20 01:45 | 33.14037 | -117.27262 | 1201 ft | 93 kts | 102° |
| 2026-04-20 01:46 | 33.13883 | -117.26659 | 1162 ft | 60 kts | 151° |
| 2026-04-20 01:46 | 33.13445 | -117.26596 | 807 ft | 69 kts | 194° |
| 2026-04-20 01:46 | 33.13063 | -117.26892 | 487 ft | 65 kts | 241° |
| 2026-04-20 01:46 | 33.12933 | -117.27371 | 322 ft | 53 kts | 253° |
| 2026-04-20 01:47 | 33.12871 | -117.27719 | 316 ft | 37 kts | 259° |
| 2026-04-20 01:47 | 33.12808 | -117.27932 | 319 ft | 12 kts | 224° |
| 2026-04-20 01:47 | 33.12770 | -117.27962 | 319 ft | 3 kts | 174° |
| 2026-04-20 01:47 | 33.12750 | -117.27942 | 319 ft | 0 kts | 110° |
| 2026-04-20 01:48 | 33.12749 | -117.27940 | 319 ft | 2 kts | 124° |
| 2026-04-20 01:48 | 33.12715 | -117.27959 | 320 ft | 0 kts | 233° |